sensor_id;sensor_type;location;lat;lon;timestamp;temperature;humidity
3752;DHT22;50827;47.014;7.652;2024-01-06T00:02:08;6.90;99.90
3752;DHT22;50827;47.014;7.652;2024-01-06T00:04:35;6.90;99.90
3752;DHT22;50827;47.014;7.652;2024-01-06T00:07:02;6.90;99.90
3752;DHT22;50827;47.014;7.652;2024-01-06T00:09:28;6.80;99.90
3752;DHT22;50827;47.014;7.652;2024-01-06T00:11:55;6.80;99.90
3752;DHT22;50827;47.014;7.652;2024-01-06T00:14:22;6.80;99.90
3752;DHT22;50827;47.014;7.652;2024-01-06T00:16:49;6.80;99.90
3752;DHT22;50827;47.014;7.652;2024-01-06T00:19:15;6.80;99.90
3752;DHT22;50827;47.014;7.652;2024-01-06T00:21:44;6.70;99.90
3752;DHT22;50827;47.014;7.652;2024-01-06T00:24:11;6.70;99.90
3752;DHT22;50827;47.014;7.652;2024-01-06T00:26:37;6.70;99.90
3752;DHT22;50827;47.014;7.652;2024-01-06T00:29:04;6.70;99.90
3752;DHT22;50827;47.014;7.652;2024-01-06T00:31:31;6.70;99.90
3752;DHT22;50827;47.014;7.652;2024-01-06T00:33:58;6.70;99.90
3752;DHT22;50827;47.014;7.652;2024-01-06T00:36:25;6.70;99.90
3752;DHT22;50827;47.014;7.652;2024-01-06T00:38:51;6.70;99.90
3752;DHT22;50827;47.014;7.652;2024-01-06T00:41:18;6.70;99.90
3752;DHT22;50827;47.014;7.652;2024-01-06T00:43:45;6.70;99.90
3752;DHT22;50827;47.014;7.652;2024-01-06T00:46:14;6.60;99.90
3752;DHT22;50827;47.014;7.652;2024-01-06T00:48:41;6.60;99.90
3752;DHT22;50827;47.014;7.652;2024-01-06T00:51:08;6.50;99.90
3752;DHT22;50827;47.014;7.652;2024-01-06T00:53:35;6.50;99.90
3752;DHT22;50827;47.014;7.652;2024-01-06T00:56:02;6.50;99.90
3752;DHT22;50827;47.014;7.652;2024-01-06T00:58:29;6.50;99.90
3752;DHT22;50827;47.014;7.652;2024-01-06T01:00:55;6.40;99.90
3752;DHT22;50827;47.014;7.652;2024-01-06T01:03:22;6.40;99.90
3752;DHT22;50827;47.014;7.652;2024-01-06T01:05:52;6.40;99.90
3752;DHT22;50827;47.014;7.652;2024-01-06T01:08:18;6.40;99.90
3752;DHT22;50827;47.014;7.652;2024-01-06T01:10:45;6.40;99.90
3752;DHT22;50827;47.014;7.652;2024-01-06T01:13:12;6.40;99.90
3752;DHT22;50827;47.014;7.652;2024-01-06T01:15:38;6.30;99.90
3752;DHT22;50827;47.014;7.652;2024-01-06T01:18:05;6.30;99.90
3752;DHT22;50827;47.014;7.652;2024-01-06T01:20:32;6.30;99.90
3752;DHT22;50827;47.014;7.652;2024-01-06T01:22:59;6.30;99.90
3752;DHT22;50827;47.014;7.652;2024-01-06T01:25:26;6.30;99.90
3752;DHT22;50827;47.014;7.652;2024-01-06T01:27:52;6.30;99.90
3752;DHT22;50827;47.014;7.652;2024-01-06T01:30:19;6.30;99.90
3752;DHT22;50827;47.014;7.652;2024-01-06T01:32:46;6.30;99.90
3752;DHT22;50827;47.014;7.652;2024-01-06T01:35:13;6.30;99.90
3752;DHT22;50827;47.014;7.652;2024-01-06T01:37:39;6.30;99.90
3752;DHT22;50827;47.014;7.652;2024-01-06T01:40:07;6.30;99.90
3752;DHT22;50827;47.014;7.652;2024-01-06T01:42:34;6.30;99.90
3752;DHT22;50827;47.014;7.652;2024-01-06T01:45:00;6.30;99.90
3752;DHT22;50827;47.014;7.652;2024-01-06T01:47:27;6.20;99.90
3752;DHT22;50827;47.014;7.652;2024-01-06T01:49:55;6.30;99.90
3752;DHT22;50827;47.014;7.652;2024-01-06T01:52:23;6.30;99.90
3752;DHT22;50827;47.014;7.652;2024-01-06T01:54:51;6.20;99.90
3752;DHT22;50827;47.014;7.652;2024-01-06T01:57:20;6.30;99.90
3752;DHT22;50827;47.014;7.652;2024-01-06T01:59:49;6.20;99.90
3752;DHT22;50827;47.014;7.652;2024-01-06T02:02:16;6.20;99.90
3752;DHT22;50827;47.014;7.652;2024-01-06T02:04:45;6.20;99.90
3752;DHT22;50827;47.014;7.652;2024-01-06T02:07:11;6.20;99.90
3752;DHT22;50827;47.014;7.652;2024-01-06T02:09:38;6.20;99.90
3752;DHT22;50827;47.014;7.652;2024-01-06T02:12:05;6.10;99.90
3752;DHT22;50827;47.014;7.652;2024-01-06T02:14:32;6.20;99.90
3752;DHT22;50827;47.014;7.652;2024-01-06T02:16:59;6.10;99.90
3752;DHT22;50827;47.014;7.652;2024-01-06T02:19:25;6.10;99.90
3752;DHT22;50827;47.014;7.652;2024-01-06T02:21:52;6.10;99.90
3752;DHT22;50827;47.014;7.652;2024-01-06T02:24:21;6.10;99.90
3752;DHT22;50827;47.014;7.652;2024-01-06T02:26:48;6.10;99.90
3752;DHT22;50827;47.014;7.652;2024-01-06T02:29:15;6.10;99.90
3752;DHT22;50827;47.014;7.652;2024-01-06T02:31:41;6.00;99.90
3752;DHT22;50827;47.014;7.652;2024-01-06T02:34:08;6.00;99.90
3752;DHT22;50827;47.014;7.652;2024-01-06T02:36:35;6.00;99.90
3752;DHT22;50827;47.014;7.652;2024-01-06T02:39:02;6.00;99.90
3752;DHT22;50827;47.014;7.652;2024-01-06T02:41:29;6.00;99.90
3752;DHT22;50827;47.014;7.652;2024-01-06T02:43:55;6.00;99.90
3752;DHT22;50827;47.014;7.652;2024-01-06T02:46:25;6.00;99.90
3752;DHT22;50827;47.014;7.652;2024-01-06T02:48:51;6.00;99.90
3752;DHT22;50827;47.014;7.652;2024-01-06T02:51:18;6.00;99.90
3752;DHT22;50827;47.014;7.652;2024-01-06T02:53:45;6.00;99.90
3752;DHT22;50827;47.014;7.652;2024-01-06T02:56:12;6.00;99.90
3752;DHT22;50827;47.014;7.652;2024-01-06T02:58:39;6.00;99.90
3752;DHT22;50827;47.014;7.652;2024-01-06T03:01:06;6.00;99.90
3752;DHT22;50827;47.014;7.652;2024-01-06T03:03:33;6.00;99.90
3752;DHT22;50827;47.014;7.652;2024-01-06T03:06:00;6.00;99.90
3752;DHT22;50827;47.014;7.652;2024-01-06T03:08:27;6.00;99.90
3752;DHT22;50827;47.014;7.652;2024-01-06T03:10:53;6.00;99.90
3752;DHT22;50827;47.014;7.652;2024-01-06T03:13:20;6.00;99.90
3752;DHT22;50827;47.014;7.652;2024-01-06T03:15:47;6.00;99.90
3752;DHT22;50827;47.014;7.652;2024-01-06T03:18:14;5.90;99.90
3752;DHT22;50827;47.014;7.652;2024-01-06T03:20:41;5.90;99.90
3752;DHT22;50827;47.014;7.652;2024-01-06T03:23:08;6.00;99.90
3752;DHT22;50827;47.014;7.652;2024-01-06T03:25:34;5.90;99.90
3752;DHT22;50827;47.014;7.652;2024-01-06T03:28:01;5.90;99.90
3752;DHT22;50827;47.014;7.652;2024-01-06T03:30:28;5.90;99.90
3752;DHT22;50827;47.014;7.652;2024-01-06T03:32:55;5.90;99.90
3752;DHT22;50827;47.014;7.652;2024-01-06T03:35:23;5.90;99.90
3752;DHT22;50827;47.014;7.652;2024-01-06T03:37:49;5.90;99.90
3752;DHT22;50827;47.014;7.652;2024-01-06T03:40:16;5.90;99.90
3752;DHT22;50827;47.014;7.652;2024-01-06T03:42:43;5.90;99.90
3752;DHT22;50827;47.014;7.652;2024-01-06T03:45:10;5.90;99.90
3752;DHT22;50827;47.014;7.652;2024-01-06T03:47:36;5.90;99.90
3752;DHT22;50827;47.014;7.652;2024-01-06T03:50:04;5.90;99.90
3752;DHT22;50827;47.014;7.652;2024-01-06T03:52:30;5.90;99.90
3752;DHT22;50827;47.014;7.652;2024-01-06T03:54:57;5.80;99.90
3752;DHT22;50827;47.014;7.652;2024-01-06T03:57:24;5.80;99.90
3752;DHT22;50827;47.014;7.652;2024-01-06T03:59:51;5.80;99.90
3752;DHT22;50827;47.014;7.652;2024-01-06T04:02:17;5.80;99.90
3752;DHT22;50827;47.014;7.652;2024-01-06T04:04:44;5.80;99.90
3752;DHT22;50827;47.014;7.652;2024-01-06T04:07:11;5.80;99.90
3752;DHT22;50827;47.014;7.652;2024-01-06T04:09:37;5.80;99.90
3752;DHT22;50827;47.014;7.652;2024-01-06T04:12:04;5.80;99.90
3752;DHT22;50827;47.014;7.652;2024-01-06T04:14:31;5.80;99.90
3752;DHT22;50827;47.014;7.652;2024-01-06T04:16:58;5.80;99.90
3752;DHT22;50827;47.014;7.652;2024-01-06T04:19:25;5.80;99.90
3752;DHT22;50827;47.014;7.652;2024-01-06T04:21:52;5.70;99.90
3752;DHT22;50827;47.014;7.652;2024-01-06T04:24:18;5.70;99.90
3752;DHT22;50827;47.014;7.652;2024-01-06T04:26:45;5.60;99.90
3752;DHT22;50827;47.014;7.652;2024-01-06T04:29:12;5.60;99.90
3752;DHT22;50827;47.014;7.652;2024-01-06T04:31:40;5.50;99.90
3752;DHT22;50827;47.014;7.652;2024-01-06T04:34:08;5.50;99.90
3752;DHT22;50827;47.014;7.652;2024-01-06T04:36:35;5.50;99.90
3752;DHT22;50827;47.014;7.652;2024-01-06T04:39:02;5.40;99.90
3752;DHT22;50827;47.014;7.652;2024-01-06T04:41:28;5.40;99.90
3752;DHT22;50827;47.014;7.652;2024-01-06T04:43:55;5.30;99.90
3752;DHT22;50827;47.014;7.652;2024-01-06T04:46:22;5.30;99.90
3752;DHT22;50827;47.014;7.652;2024-01-06T04:48:48;5.20;99.90
3752;DHT22;50827;47.014;7.652;2024-01-06T04:51:15;5.20;99.90
3752;DHT22;50827;47.014;7.652;2024-01-06T04:53:42;5.20;99.90
3752;DHT22;50827;47.014;7.652;2024-01-06T04:56:09;5.20;99.90
3752;DHT22;50827;47.014;7.652;2024-01-06T04:58:35;5.20;99.90
3752;DHT22;50827;47.014;7.652;2024-01-06T05:01:02;5.10;99.90
3752;DHT22;50827;47.014;7.652;2024-01-06T05:03:29;5.10;99.90
3752;DHT22;50827;47.014;7.652;2024-01-06T05:05:56;5.10;99.90
3752;DHT22;50827;47.014;7.652;2024-01-06T05:08:23;5.10;99.90
3752;DHT22;50827;47.014;7.652;2024-01-06T05:10:52;5.10;99.90
3752;DHT22;50827;47.014;7.652;2024-01-06T05:13:19;5.00;99.90
3752;DHT22;50827;47.014;7.652;2024-01-06T05:15:46;5.00;99.90
3752;DHT22;50827;47.014;7.652;2024-01-06T05:18:13;4.90;99.90
3752;DHT22;50827;47.014;7.652;2024-01-06T05:20:40;4.90;99.90
3752;DHT22;50827;47.014;7.652;2024-01-06T05:23:10;4.90;99.90
3752;DHT22;50827;47.014;7.652;2024-01-06T05:25:36;4.90;99.90
3752;DHT22;50827;47.014;7.652;2024-01-06T05:28:03;4.90;99.90
3752;DHT22;50827;47.014;7.652;2024-01-06T05:30:30;4.90;99.90
3752;DHT22;50827;47.014;7.652;2024-01-06T05:32:57;4.90;99.90
3752;DHT22;50827;47.014;7.652;2024-01-06T05:35:24;4.90;99.90
3752;DHT22;50827;47.014;7.652;2024-01-06T05:37:50;4.90;99.90
3752;DHT22;50827;47.014;7.652;2024-01-06T05:40:17;4.90;99.90
3752;DHT22;50827;47.014;7.652;2024-01-06T05:42:44;4.90;99.90
3752;DHT22;50827;47.014;7.652;2024-01-06T05:45:11;4.90;99.90
3752;DHT22;50827;47.014;7.652;2024-01-06T05:47:39;4.90;99.90
3752;DHT22;50827;47.014;7.652;2024-01-06T05:50:07;4.80;99.90
3752;DHT22;50827;47.014;7.652;2024-01-06T05:52:36;4.70;99.90
3752;DHT22;50827;47.014;7.652;2024-01-06T05:55:04;4.80;99.90
3752;DHT22;50827;47.014;7.652;2024-01-06T05:57:31;4.80;99.90
3752;DHT22;50827;47.014;7.652;2024-01-06T05:59:58;4.80;99.90
3752;DHT22;50827;47.014;7.652;2024-01-06T06:02:25;4.80;99.90
3752;DHT22;50827;47.014;7.652;2024-01-06T06:04:52;4.80;99.90
3752;DHT22;50827;47.014;7.652;2024-01-06T06:07:19;4.90;99.90
3752;DHT22;50827;47.014;7.652;2024-01-06T06:09:47;4.90;99.90
3752;DHT22;50827;47.014;7.652;2024-01-06T06:12:14;4.90;99.90
3752;DHT22;50827;47.014;7.652;2024-01-06T06:14:41;4.90;99.90
3752;DHT22;50827;47.014;7.652;2024-01-06T06:17:08;4.90;99.90
3752;DHT22;50827;47.014;7.652;2024-01-06T06:19:34;4.90;99.90
3752;DHT22;50827;47.014;7.652;2024-01-06T06:22:01;4.90;99.90
3752;DHT22;50827;47.014;7.652;2024-01-06T06:24:28;4.90;99.90
3752;DHT22;50827;47.014;7.652;2024-01-06T06:26:55;4.90;99.90
3752;DHT22;50827;47.014;7.652;2024-01-06T06:29:22;4.90;99.90
3752;DHT22;50827;47.014;7.652;2024-01-06T06:31:49;5.00;99.90
3752;DHT22;50827;47.014;7.652;2024-01-06T06:34:16;5.00;99.90
3752;DHT22;50827;47.014;7.652;2024-01-06T06:36:43;5.00;99.90
3752;DHT22;50827;47.014;7.652;2024-01-06T06:39:09;5.10;99.90
3752;DHT22;50827;47.014;7.652;2024-01-06T06:41:37;5.10;99.90
3752;DHT22;50827;47.014;7.652;2024-01-06T06:44:03;5.10;99.90
3752;DHT22;50827;47.014;7.652;2024-01-06T06:46:30;5.20;99.90
3752;DHT22;50827;47.014;7.652;2024-01-06T06:48:58;5.20;99.90
3752;DHT22;50827;47.014;7.652;2024-01-06T06:51:25;5.20;99.90
3752;DHT22;50827;47.014;7.652;2024-01-06T06:53:54;5.20;99.90
3752;DHT22;50827;47.014;7.652;2024-01-06T06:56:20;5.30;99.90
3752;DHT22;50827;47.014;7.652;2024-01-06T06:58:47;5.20;99.90
3752;DHT22;50827;47.014;7.652;2024-01-06T07:01:15;5.20;99.90
3752;DHT22;50827;47.014;7.652;2024-01-06T07:03:42;5.20;99.90
3752;DHT22;50827;47.014;7.652;2024-01-06T07:06:12;5.20;99.90
3752;DHT22;50827;47.014;7.652;2024-01-06T07:08:39;5.20;99.90
3752;DHT22;50827;47.014;7.652;2024-01-06T07:11:06;5.20;99.90
3752;DHT22;50827;47.014;7.652;2024-01-06T07:13:33;5.20;99.90
3752;DHT22;50827;47.014;7.652;2024-01-06T07:15:59;5.20;99.90
3752;DHT22;50827;47.014;7.652;2024-01-06T07:18:43;5.20;99.90
3752;DHT22;50827;47.014;7.652;2024-01-06T07:21:12;5.20;99.90
3752;DHT22;50827;47.014;7.652;2024-01-06T07:23:39;5.10;99.90
3752;DHT22;50827;47.014;7.652;2024-01-06T07:26:06;5.10;99.90
3752;DHT22;50827;47.014;7.652;2024-01-06T07:28:35;5.10;99.90
3752;DHT22;50827;47.014;7.652;2024-01-06T07:31:01;5.00;99.90
3752;DHT22;50827;47.014;7.652;2024-01-06T07:33:28;5.00;99.90
3752;DHT22;50827;47.014;7.652;2024-01-06T07:35:55;5.00;99.90
3752;DHT22;50827;47.014;7.652;2024-01-06T07:38:22;5.00;99.90
3752;DHT22;50827;47.014;7.652;2024-01-06T07:40:48;5.00;99.90
3752;DHT22;50827;47.014;7.652;2024-01-06T07:43:15;4.90;99.90
3752;DHT22;50827;47.014;7.652;2024-01-06T07:45:42;4.90;99.90
3752;DHT22;50827;47.014;7.652;2024-01-06T07:48:09;4.90;99.90
3752;DHT22;50827;47.014;7.652;2024-01-06T07:50:36;4.90;99.90
3752;DHT22;50827;47.014;7.652;2024-01-06T07:53:02;4.80;99.90
3752;DHT22;50827;47.014;7.652;2024-01-06T07:55:29;4.90;99.90
3752;DHT22;50827;47.014;7.652;2024-01-06T07:57:56;4.90;99.90
3752;DHT22;50827;47.014;7.652;2024-01-06T08:00:23;4.90;99.90
3752;DHT22;50827;47.014;7.652;2024-01-06T08:02:49;4.80;99.90
3752;DHT22;50827;47.014;7.652;2024-01-06T08:05:16;4.80;99.90
3752;DHT22;50827;47.014;7.652;2024-01-06T08:07:43;4.80;99.90
3752;DHT22;50827;47.014;7.652;2024-01-06T08:10:10;4.80;99.90
3752;DHT22;50827;47.014;7.652;2024-01-06T08:12:36;4.90;99.90
3752;DHT22;50827;47.014;7.652;2024-01-06T08:15:04;4.90;99.90
3752;DHT22;50827;47.014;7.652;2024-01-06T08:17:31;4.80;99.90
3752;DHT22;50827;47.014;7.652;2024-01-06T08:19:58;4.80;99.90
3752;DHT22;50827;47.014;7.652;2024-01-06T08:22:24;4.90;99.90
3752;DHT22;50827;47.014;7.652;2024-01-06T08:24:51;4.90;99.90
3752;DHT22;50827;47.014;7.652;2024-01-06T08:27:18;4.90;99.90
3752;DHT22;50827;47.014;7.652;2024-01-06T08:29:45;5.00;99.90
3752;DHT22;50827;47.014;7.652;2024-01-06T08:32:12;5.00;99.90
3752;DHT22;50827;47.014;7.652;2024-01-06T08:34:41;4.90;99.90
3752;DHT22;50827;47.014;7.652;2024-01-06T08:37:08;5.00;99.90
3752;DHT22;50827;47.014;7.652;2024-01-06T08:39:34;4.90;99.90
3752;DHT22;50827;47.014;7.652;2024-01-06T08:42:01;4.90;99.90
3752;DHT22;50827;47.014;7.652;2024-01-06T08:44:29;5.00;99.90
3752;DHT22;50827;47.014;7.652;2024-01-06T08:46:55;5.00;99.90
3752;DHT22;50827;47.014;7.652;2024-01-06T08:49:22;5.00;99.90
3752;DHT22;50827;47.014;7.652;2024-01-06T08:51:49;5.00;99.90
3752;DHT22;50827;47.014;7.652;2024-01-06T08:54:16;5.00;99.90
3752;DHT22;50827;47.014;7.652;2024-01-06T08:56:43;5.10;99.90
3752;DHT22;50827;47.014;7.652;2024-01-06T08:59:10;5.10;99.90
3752;DHT22;50827;47.014;7.652;2024-01-06T09:01:37;5.10;99.90
3752;DHT22;50827;47.014;7.652;2024-01-06T09:04:05;5.10;99.90
3752;DHT22;50827;47.014;7.652;2024-01-06T09:06:33;5.10;99.90
3752;DHT22;50827;47.014;7.652;2024-01-06T09:09:00;5.20;99.90
3752;DHT22;50827;47.014;7.652;2024-01-06T09:11:27;5.20;99.90
3752;DHT22;50827;47.014;7.652;2024-01-06T09:13:54;5.30;99.90
3752;DHT22;50827;47.014;7.652;2024-01-06T09:16:21;5.30;99.90
3752;DHT22;50827;47.014;7.652;2024-01-06T09:18:48;5.30;99.90
3752;DHT22;50827;47.014;7.652;2024-01-06T09:21:15;5.40;99.90
3752;DHT22;50827;47.014;7.652;2024-01-06T09:23:42;5.30;99.90
3752;DHT22;50827;47.014;7.652;2024-01-06T09:26:09;5.30;99.90
3752;DHT22;50827;47.014;7.652;2024-01-06T09:28:36;5.30;99.90
3752;DHT22;50827;47.014;7.652;2024-01-06T09:31:03;5.40;99.90
3752;DHT22;50827;47.014;7.652;2024-01-06T09:33:31;5.30;99.90
3752;DHT22;50827;47.014;7.652;2024-01-06T09:36:01;5.40;99.90
3752;DHT22;50827;47.014;7.652;2024-01-06T09:38:28;5.40;99.90
3752;DHT22;50827;47.014;7.652;2024-01-06T09:40:55;5.50;99.90
3752;DHT22;50827;47.014;7.652;2024-01-06T09:43:22;5.50;99.90
3752;DHT22;50827;47.014;7.652;2024-01-06T09:45:56;5.50;99.90
3752;DHT22;50827;47.014;7.652;2024-01-06T09:48:29;5.50;99.90
3752;DHT22;50827;47.014;7.652;2024-01-06T09:51:02;5.60;99.90
3752;DHT22;50827;47.014;7.652;2024-01-06T09:53:34;5.60;99.90
3752;DHT22;50827;47.014;7.652;2024-01-06T09:56:04;5.70;99.90
3752;DHT22;50827;47.014;7.652;2024-01-06T09:58:31;5.70;99.90
3752;DHT22;50827;47.014;7.652;2024-01-06T10:01:01;5.70;99.90
3752;DHT22;50827;47.014;7.652;2024-01-06T10:03:28;5.70;99.90
3752;DHT22;50827;47.014;7.652;2024-01-06T10:05:56;5.70;99.90
3752;DHT22;50827;47.014;7.652;2024-01-06T10:08:27;5.80;99.90
3752;DHT22;50827;47.014;7.652;2024-01-06T10:10:53;5.90;99.90
3752;DHT22;50827;47.014;7.652;2024-01-06T10:13:20;5.90;99.90
3752;DHT22;50827;47.014;7.652;2024-01-06T10:15:47;5.90;99.90
3752;DHT22;50827;47.014;7.652;2024-01-06T10:18:14;6.00;99.90
3752;DHT22;50827;47.014;7.652;2024-01-06T10:20:41;6.00;99.90
3752;DHT22;50827;47.014;7.652;2024-01-06T10:23:08;6.20;99.90
3752;DHT22;50827;47.014;7.652;2024-01-06T10:25:35;6.10;99.90
3752;DHT22;50827;47.014;7.652;2024-01-06T10:28:02;6.20;99.90
3752;DHT22;50827;47.014;7.652;2024-01-06T10:30:29;6.20;99.90
3752;DHT22;50827;47.014;7.652;2024-01-06T10:32:56;6.20;99.90
3752;DHT22;50827;47.014;7.652;2024-01-06T10:35:25;6.10;99.90
3752;DHT22;50827;47.014;7.652;2024-01-06T10:37:52;6.20;99.90
3752;DHT22;50827;47.014;7.652;2024-01-06T10:40:20;6.20;99.90
3752;DHT22;50827;47.014;7.652;2024-01-06T10:42:47;6.20;99.90
3752;DHT22;50827;47.014;7.652;2024-01-06T10:45:14;6.20;99.90
3752;DHT22;50827;47.014;7.652;2024-01-06T10:47:42;6.30;99.90
3752;DHT22;50827;47.014;7.652;2024-01-06T10:50:10;6.30;99.90
3752;DHT22;50827;47.014;7.652;2024-01-06T10:52:38;6.30;99.90
3752;DHT22;50827;47.014;7.652;2024-01-06T10:55:06;6.30;99.90
3752;DHT22;50827;47.014;7.652;2024-01-06T10:57:33;6.40;99.90
3752;DHT22;50827;47.014;7.652;2024-01-06T11:00:01;6.30;99.90
3752;DHT22;50827;47.014;7.652;2024-01-06T11:02:28;6.30;99.90
3752;DHT22;50827;47.014;7.652;2024-01-06T11:04:55;6.30;99.90
3752;DHT22;50827;47.014;7.652;2024-01-06T11:07:24;6.40;99.90
3752;DHT22;50827;47.014;7.652;2024-01-06T11:10:13;6.40;99.90
3752;DHT22;50827;47.014;7.652;2024-01-06T11:12:45;6.40;99.90
3752;DHT22;50827;47.014;7.652;2024-01-06T11:15:38;6.40;99.90
3752;DHT22;50827;47.014;7.652;2024-01-06T11:18:05;6.50;99.90
3752;DHT22;50827;47.014;7.652;2024-01-06T11:20:32;6.50;99.90
3752;DHT22;50827;47.014;7.652;2024-01-06T11:23:19;6.50;99.90
3752;DHT22;50827;47.014;7.652;2024-01-06T11:25:48;6.60;99.90
3752;DHT22;50827;47.014;7.652;2024-01-06T11:28:16;6.60;99.90
3752;DHT22;50827;47.014;7.652;2024-01-06T11:30:43;6.70;99.90
3752;DHT22;50827;47.014;7.652;2024-01-06T11:33:10;6.60;99.90
3752;DHT22;50827;47.014;7.652;2024-01-06T11:35:37;6.70;99.90
3752;DHT22;50827;47.014;7.652;2024-01-06T11:38:07;6.70;99.90
3752;DHT22;50827;47.014;7.652;2024-01-06T11:40:35;6.70;99.90
3752;DHT22;50827;47.014;7.652;2024-01-06T11:43:10;6.80;99.90
3752;DHT22;50827;47.014;7.652;2024-01-06T11:45:40;7.40;99.90
3752;DHT22;50827;47.014;7.652;2024-01-06T11:48:09;7.80;99.90
3752;DHT22;50827;47.014;7.652;2024-01-06T11:50:38;7.60;99.90
3752;DHT22;50827;47.014;7.652;2024-01-06T11:53:06;7.50;99.90
3752;DHT22;50827;47.014;7.652;2024-01-06T11:55:34;7.50;99.90
3752;DHT22;50827;47.014;7.652;2024-01-06T11:58:02;7.50;99.90
3752;DHT22;50827;47.014;7.652;2024-01-06T12:00:31;7.40;99.90
3752;DHT22;50827;47.014;7.652;2024-01-06T12:03:01;7.30;99.90
3752;DHT22;50827;47.014;7.652;2024-01-06T12:05:28;7.20;99.90
3752;DHT22;50827;47.014;7.652;2024-01-06T12:07:57;7.30;99.90
3752;DHT22;50827;47.014;7.652;2024-01-06T12:10:25;7.20;99.90
3752;DHT22;50827;47.014;7.652;2024-01-06T12:12:59;7.20;99.90
3752;DHT22;50827;47.014;7.652;2024-01-06T12:15:28;7.20;99.90
3752;DHT22;50827;47.014;7.652;2024-01-06T12:17:56;7.20;99.90
3752;DHT22;50827;47.014;7.652;2024-01-06T12:20:24;7.20;99.90
3752;DHT22;50827;47.014;7.652;2024-01-06T12:22:51;7.20;99.90
3752;DHT22;50827;47.014;7.652;2024-01-06T12:25:20;7.10;99.90
3752;DHT22;50827;47.014;7.652;2024-01-06T12:27:48;7.10;99.90
3752;DHT22;50827;47.014;7.652;2024-01-06T12:30:18;7.10;99.90
3752;DHT22;50827;47.014;7.652;2024-01-06T12:32:49;7.10;99.90
3752;DHT22;50827;47.014;7.652;2024-01-06T12:35:17;7.10;99.90
3752;DHT22;50827;47.014;7.652;2024-01-06T12:37:44;7.10;99.90
3752;DHT22;50827;47.014;7.652;2024-01-06T12:40:15;7.10;99.90
3752;DHT22;50827;47.014;7.652;2024-01-06T12:42:44;7.10;99.90
3752;DHT22;50827;47.014;7.652;2024-01-06T12:45:12;7.10;99.90
3752;DHT22;50827;47.014;7.652;2024-01-06T12:47:40;7.10;99.90
3752;DHT22;50827;47.014;7.652;2024-01-06T12:50:09;7.10;99.90
3752;DHT22;50827;47.014;7.652;2024-01-06T12:52:35;7.10;99.90
3752;DHT22;50827;47.014;7.652;2024-01-06T12:55:05;7.10;99.90
3752;DHT22;50827;47.014;7.652;2024-01-06T12:57:32;7.10;99.90
3752;DHT22;50827;47.014;7.652;2024-01-06T13:00:00;7.00;99.90
3752;DHT22;50827;47.014;7.652;2024-01-06T13:02:27;7.10;99.90
3752;DHT22;50827;47.014;7.652;2024-01-06T13:04:54;7.10;99.90
3752;DHT22;50827;47.014;7.652;2024-01-06T13:07:21;7.10;99.90
3752;DHT22;50827;47.014;7.652;2024-01-06T13:09:48;7.10;99.90
3752;DHT22;50827;47.014;7.652;2024-01-06T13:12:15;7.10;99.90
3752;DHT22;50827;47.014;7.652;2024-01-06T13:14:45;7.10;99.90
3752;DHT22;50827;47.014;7.652;2024-01-06T13:17:13;7.10;99.90
3752;DHT22;50827;47.014;7.652;2024-01-06T13:19:43;7.10;99.90
3752;DHT22;50827;47.014;7.652;2024-01-06T13:22:10;7.10;99.90
3752;DHT22;50827;47.014;7.652;2024-01-06T13:24:37;7.10;99.90
3752;DHT22;50827;47.014;7.652;2024-01-06T13:27:04;7.10;99.90
3752;DHT22;50827;47.014;7.652;2024-01-06T13:29:31;7.10;99.90
3752;DHT22;50827;47.014;7.652;2024-01-06T13:31:58;7.10;99.90
3752;DHT22;50827;47.014;7.652;2024-01-06T13:34:26;7.10;99.90
3752;DHT22;50827;47.014;7.652;2024-01-06T13:36:53;7.20;99.90
3752;DHT22;50827;47.014;7.652;2024-01-06T13:39:23;7.10;99.90
3752;DHT22;50827;47.014;7.652;2024-01-06T13:41:50;7.20;99.90
3752;DHT22;50827;47.014;7.652;2024-01-06T13:44:17;7.10;99.90
3752;DHT22;50827;47.014;7.652;2024-01-06T13:46:43;7.10;99.90
3752;DHT22;50827;47.014;7.652;2024-01-06T13:49:12;7.10;99.90
3752;DHT22;50827;47.014;7.652;2024-01-06T13:51:40;7.20;99.90
3752;DHT22;50827;47.014;7.652;2024-01-06T13:54:07;7.10;99.90
3752;DHT22;50827;47.014;7.652;2024-01-06T13:56:34;7.20;99.90
3752;DHT22;50827;47.014;7.652;2024-01-06T13:59:01;7.20;99.90
3752;DHT22;50827;47.014;7.652;2024-01-06T14:01:27;7.10;99.90
3752;DHT22;50827;47.014;7.652;2024-01-06T14:03:55;7.20;99.90
3752;DHT22;50827;47.014;7.652;2024-01-06T14:06:25;7.20;99.90
3752;DHT22;50827;47.014;7.652;2024-01-06T14:08:57;7.10;99.90
3752;DHT22;50827;47.014;7.652;2024-01-06T14:11:23;7.10;99.90
3752;DHT22;50827;47.014;7.652;2024-01-06T14:13:52;7.10;99.90
3752;DHT22;50827;47.014;7.652;2024-01-06T14:16:19;7.10;99.90
3752;DHT22;50827;47.014;7.652;2024-01-06T14:18:47;7.10;99.90
3752;DHT22;50827;47.014;7.652;2024-01-06T14:21:14;7.00;99.90
3752;DHT22;50827;47.014;7.652;2024-01-06T14:23:42;7.10;99.90
3752;DHT22;50827;47.014;7.652;2024-01-06T14:26:08;7.10;99.90
3752;DHT22;50827;47.014;7.652;2024-01-06T14:28:36;7.10;99.90
3752;DHT22;50827;47.014;7.652;2024-01-06T14:31:03;7.10;99.90
3752;DHT22;50827;47.014;7.652;2024-01-06T14:33:30;7.10;99.90
3752;DHT22;50827;47.014;7.652;2024-01-06T14:35:57;7.10;99.90
3752;DHT22;50827;47.014;7.652;2024-01-06T14:38:24;7.10;99.90
3752;DHT22;50827;47.014;7.652;2024-01-06T14:40:51;7.10;99.90
3752;DHT22;50827;47.014;7.652;2024-01-06T14:43:18;7.00;99.90
3752;DHT22;50827;47.014;7.652;2024-01-06T14:45:44;7.00;99.90
3752;DHT22;50827;47.014;7.652;2024-01-06T14:48:11;7.00;99.90
3752;DHT22;50827;47.014;7.652;2024-01-06T14:50:38;7.00;99.90
3752;DHT22;50827;47.014;7.652;2024-01-06T14:53:05;6.90;99.90
3752;DHT22;50827;47.014;7.652;2024-01-06T14:55:33;7.00;99.90
3752;DHT22;50827;47.014;7.652;2024-01-06T14:57:59;6.90;99.90
3752;DHT22;50827;47.014;7.652;2024-01-06T15:00:26;6.90;99.90
3752;DHT22;50827;47.014;7.652;2024-01-06T15:02:53;6.90;99.90
3752;DHT22;50827;47.014;7.652;2024-01-06T15:05:20;6.90;99.90
3752;DHT22;50827;47.014;7.652;2024-01-06T15:07:47;6.90;99.90
3752;DHT22;50827;47.014;7.652;2024-01-06T15:10:13;6.80;99.90
3752;DHT22;50827;47.014;7.652;2024-01-06T15:12:42;6.80;99.90
3752;DHT22;50827;47.014;7.652;2024-01-06T15:15:09;6.80;99.90
3752;DHT22;50827;47.014;7.652;2024-01-06T15:17:35;6.80;99.90
3752;DHT22;50827;47.014;7.652;2024-01-06T15:20:04;6.70;99.90
3752;DHT22;50827;47.014;7.652;2024-01-06T15:22:31;6.70;99.90
3752;DHT22;50827;47.014;7.652;2024-01-06T15:24:57;6.70;99.90
3752;DHT22;50827;47.014;7.652;2024-01-06T15:27:26;6.70;99.90
3752;DHT22;50827;47.014;7.652;2024-01-06T15:29:53;6.70;99.90
3752;DHT22;50827;47.014;7.652;2024-01-06T15:32:19;6.70;99.90
3752;DHT22;50827;47.014;7.652;2024-01-06T15:34:46;6.70;99.90
3752;DHT22;50827;47.014;7.652;2024-01-06T15:37:13;6.70;99.90
3752;DHT22;50827;47.014;7.652;2024-01-06T15:39:40;6.70;99.90
3752;DHT22;50827;47.014;7.652;2024-01-06T15:42:06;6.60;99.90
3752;DHT22;50827;47.014;7.652;2024-01-06T15:44:33;6.60;99.90
3752;DHT22;50827;47.014;7.652;2024-01-06T15:47:00;6.70;99.90
3752;DHT22;50827;47.014;7.652;2024-01-06T15:49:27;6.70;99.90
3752;DHT22;50827;47.014;7.652;2024-01-06T15:51:54;6.70;99.90
3752;DHT22;50827;47.014;7.652;2024-01-06T15:54:23;6.70;99.90
3752;DHT22;50827;47.014;7.652;2024-01-06T15:56:50;6.60;99.90
3752;DHT22;50827;47.014;7.652;2024-01-06T15:59:17;6.70;99.90
3752;DHT22;50827;47.014;7.652;2024-01-06T16:01:44;6.60;99.90
3752;DHT22;50827;47.014;7.652;2024-01-06T16:04:11;6.60;99.90